Thursday, June 29, 2017, 10:04 AM EDT

KSHD, Staunton / Shenandoah

Location: Weyers Cave, VA, United States Lat: 38.267
Local Time: 10:04 AM EDT (14:04 GMT) Lon: -78.9
Time Zone: US/Eastern Elev: 1200 ft

Show me the last for .
Show Decoded

2017-06-29 09:35 METAR KSHD 291335Z AUTO 21006KT 10SM CLR 22/15 A3020 RMK AO2 T02230148 =
2017-06-29 09:15 METAR KSHD 291315Z AUTO 20003KT 10SM CLR 21/15 A3021 RMK AO2 T02110151 =
2017-06-29 08:55 METAR KSHD 291255Z AUTO 21004KT 10SM CLR 19/15 A3021 RMK AO2 T01930148 =
2017-06-29 08:35 METAR KSHD 291235Z AUTO 00000KT 10SM CLR 17/14 A3022 RMK AO2 T01740139 =
2017-06-29 08:15 METAR KSHD 291215Z AUTO 00000KT 10SM CLR 16/13 A3022 RMK AO2 T01610133 =
2017-06-29 07:55 METAR KSHD 291155Z AUTO 00000KT 10SM CLR 15/13 A3022 RMK AO2 T01510129 10151
                 20114 =
2017-06-29 07:35 METAR KSHD 291135Z AUTO 00000KT 10SM CLR 14/12 A3021 RMK AO2 T01410122 =
2017-06-29 07:15 METAR KSHD 291115Z AUTO 00000KT 10SM CLR 14/12 A3021 RMK AO2 T01360119 =
2017-06-29 06:55 METAR KSHD 291055Z AUTO 00000KT 10SM CLR 13/11 A3021 RMK AO2 T01260114 =
2017-06-29 06:35 METAR KSHD 291035Z AUTO 00000KT 5SM BR CLR 12/11 A3021 RMK AO2 T01230108 =
2017-06-29 06:15 METAR KSHD 291015Z AUTO 00000KT 10SM CLR 12/11 A3020 RMK AO2 T01180109 =
2017-06-29 05:55 METAR KSHD 290955Z AUTO 00000KT 10SM CLR 12/11 A3019 RMK AO2 T01210108 =
2017-06-29 05:35 METAR KSHD 290935Z AUTO 00000KT 10SM CLR 12/11 A3019 RMK AO2 T01170107 =
2017-06-29 05:15 METAR KSHD 290915Z AUTO 00000KT 10SM CLR 12/10 A3019 RMK AO2 T01160103 =
2017-06-29 04:55 METAR KSHD 290855Z AUTO 00000KT 10SM CLR 12/11 A3020 RMK AO2 T01190106 =
2017-06-29 04:35 METAR KSHD 290835Z AUTO 17003KT 10SM CLR 12/11 A3019 RMK AO2 T01200107 =
2017-06-29 04:15 METAR KSHD 290815Z AUTO 00000KT 10SM CLR 13/11 A3020 RMK AO2 T01250108 =
2017-06-29 03:55 METAR KSHD 290755Z AUTO 00000KT 10SM CLR 12/11 A3020 RMK AO2 T01230108 =
2017-06-29 03:35 METAR KSHD 290735Z AUTO 00000KT 10SM CLR 12/11 A3020 RMK AO2 T01230109 =
2017-06-29 03:15 METAR KSHD 290715Z AUTO 00000KT 10SM CLR 13/11 A3020 RMK AO2 T01320112 =
2017-06-29 02:55 METAR KSHD 290655Z AUTO 00000KT 10SM CLR 13/11 A3020 RMK AO2 T01270109 =
2017-06-29 02:35 METAR KSHD 290635Z AUTO 00000KT 10SM CLR 13/11 A3020 RMK AO2 T01340110 =
2017-06-29 02:15 METAR KSHD 290615Z AUTO 00000KT 10SM CLR 13/11 A3020 RMK AO2 T01270107 =
2017-06-29 01:55 METAR KSHD 290555Z AUTO 00000KT 10SM CLR 15/11 A3020 RMK AO2 T01450111 10225
                 20132 402540065 =
2017-06-29 01:35 METAR KSHD 290535Z AUTO 00000KT 10SM CLR 15/11 A3020 RMK AO2 T01460112 =
2017-06-29 01:15 METAR KSHD 290515Z AUTO 23003KT 10SM CLR 14/11 A3020 RMK AO2 T01410112 =
2017-06-29 00:55 METAR KSHD 290455Z AUTO 25003KT 10SM CLR 13/11 A3020 RMK AO2 T01320111 =
2017-06-29 00:35 METAR KSHD 290435Z AUTO 00000KT 10SM CLR 15/12 A3020 RMK AO2 T01510115 =
2017-06-29 00:15 METAR KSHD 290415Z AUTO 00000KT 10SM CLR 15/11 A3020 RMK AO2 T01520112 =
2017-06-28 23:55 METAR KSHD 290355Z AUTO 23003KT 10SM CLR 15/11 A3020 RMK AO2 T01520112 =
2017-06-28 23:35 METAR KSHD 290335Z AUTO 22004KT 10SM CLR 15/11 A3019 RMK AO2 T01510113 =
2017-06-28 23:15 METAR KSHD 290315Z AUTO 21004KT 10SM CLR 16/12 A3020 RMK AO2 T01620116 =
2017-06-28 22:55 METAR KSHD 290255Z AUTO 24004KT 10SM CLR 16/12 A3020 RMK AO2 T01640116 =
2017-06-28 22:35 METAR KSHD 290235Z AUTO 22003KT 10SM CLR 17/12 A3020 RMK AO2 T01680116 =
2017-06-28 22:15 METAR KSHD 290215Z AUTO 20003KT 10SM CLR 19/11 A3020 RMK AO2 T01880113 =
2017-06-28 21:55 METAR KSHD 290155Z AUTO 19005KT 10SM CLR 19/11 A3019 RMK AO2 T01910113 =
2017-06-28 21:35 METAR KSHD 290135Z AUTO 00000KT 10SM CLR 19/11 A3018 RMK AO2 T01940113 =
2017-06-28 21:15 METAR KSHD 290115Z AUTO 00000KT 10SM CLR 20/11 A3018 RMK AO2 T01980113 =
2017-06-28 20:55 METAR KSHD 290055Z AUTO 16003KT 10SM CLR 20/11 A3018 RMK AO2 T02040113 =
2017-06-28 20:35 METAR KSHD 290035Z AUTO 16004KT 10SM CLR 21/11 A3018 RMK AO2 T02120111 =
2017-06-28 20:15 METAR KSHD 290015Z AUTO 16007KT 10SM CLR 22/11 A3017 RMK AO2 T02200110 =
2017-06-28 19:55 METAR KSHD 282355Z AUTO 16005KT 10SM CLR 23/11 A3017 RMK AO2 T02250113 10254
                 20225 =
2017-06-28 19:35 METAR KSHD 282335Z AUTO 16007KT 10SM CLR 23/12 A3017 RMK AO2 T02310116 =
2017-06-28 19:15 METAR KSHD 282315Z AUTO 16007KT 10SM CLR 24/12 A3018 RMK AO2 T02350117 =
2017-06-28 18:55 METAR KSHD 282255Z AUTO 16008KT 10SM CLR 24/12 A3017 RMK AO2 T02410120 =
2017-06-28 18:35 METAR KSHD 282235Z AUTO 16008KT 10SM CLR 24/12 A3017 RMK AO2 T02440122 =
2017-06-28 18:15 METAR KSHD 282215Z AUTO 17005KT 10SM CLR 25/10 A3017 RMK AO2 T02460103 =
2017-06-28 17:55 METAR KSHD 282155Z AUTO 21009KT 10SM CLR 25/10 A3018 RMK AO2 T02480102 =
2017-06-28 17:35 METAR KSHD 282135Z AUTO 16006KT 10SM CLR 25/09 A3018 RMK AO2 T02470093 =
2017-06-28 17:15 METAR KSHD 282115Z AUTO 18005KT 10SM CLR 25/10 A3019 RMK AO2 T02530098 =
2017-06-28 16:55 METAR KSHD 282055Z AUTO 17004KT 10SM CLR 25/10 A3019 RMK AO2 T02520102 =
2017-06-28 16:35 METAR KSHD 282035Z AUTO 15008KT 10SM CLR 25/10 A3019 RMK AO2 T02470098 =
2017-06-28 16:15 METAR KSHD 282015Z AUTO 26003KT 10SM CLR 25/10 A3019 RMK AO2 T02510099 =
2017-06-28 15:55 METAR KSHD 281955Z AUTO 30005KT 10SM CLR 25/10 A3019 RMK AO2 T02450097 =
2017-06-28 15:35 METAR KSHD 281935Z AUTO 18003KT 10SM CLR 24/09 A3020 RMK AO2 T02410091 =
2017-06-28 15:15 METAR KSHD 281915Z AUTO 16005KT 10SM CLR 24/09 A3021 RMK AO2 T02420092 =
2017-06-28 14:55 METAR KSHD 281855Z AUTO 15004KT 10SM CLR 24/09 A3021 RMK AO2 T02430092 =
2017-06-28 14:35 METAR KSHD 281835Z AUTO 00000KT 10SM CLR 24/09 A3021 RMK AO2 T02370087 =
2017-06-28 14:15 METAR KSHD 281815Z AUTO 19006KT 10SM CLR 24/09 A3022 RMK AO2 T02360088 =
2017-06-28 13:55 METAR KSHD 281755Z AUTO 30003KT 10SM CLR 23/08 A3023 RMK AO2 T02290083 10238
                 20120 =
2017-06-28 13:35 METAR KSHD 281735Z AUTO 20006KT 10SM CLR 23/09 A3024 RMK AO2 T02310086 =
2017-06-28 13:15 METAR KSHD 281715Z AUTO 34004KT 10SM CLR 22/08 A3024 RMK AO2 T02240079 =
2017-06-28 12:55 METAR KSHD 281655Z AUTO 22004KT 10SM CLR 22/08 A3024 RMK AO2 T02220079 =
2017-06-28 12:35 METAR KSHD 281635Z AUTO 28005KT 10SM CLR 22/09 A3023 RMK AO2 T02220088 =
2017-06-28 12:15 METAR KSHD 281615Z AUTO 00000KT 10SM CLR 22/08 A3024 RMK AO2 T02160081 =
2017-06-28 11:55 METAR KSHD 281555Z AUTO 00000KT 10SM CLR 21/08 A3025 RMK AO2 T02130083 =
2017-06-28 11:35 METAR KSHD 281535Z AUTO 18003KT 10SM CLR 21/08 A3024 RMK AO2 T02110081 =
2017-06-28 11:15 METAR KSHD 281515Z AUTO 00000KT 10SM CLR 20/08 A3025 RMK AO2 T02020081 =
2017-06-28 10:55 METAR KSHD 281455Z AUTO 00000KT 10SM CLR 20/08 A3025 RMK AO2 T02030083 =
2017-06-28 10:35 METAR KSHD 281435Z AUTO 00000KT 10SM CLR 20/09 A3025 RMK AO2 T01970093 =
2017-06-28 10:15 METAR KSHD 281415Z AUTO 00000KT 10SM CLR 19/10 A3027 RMK AO2 T01910096 =

Support USWX by starting your Amazon purchase here.